Time;durP1;ratioP1;P1;durP2;ratioP2;P2;SDS_P1;SDS_P2;PMS_P1;PMS_P2;Temp;Humidity;BMP_temperature;BMP_pressure;BME280_temperature;BME280_humidity;BME280_pressure;Samples;Min_cycle;Max_cycle;Signal;HPM_P1;HPM_P2
2023/07/06 00:01:05;;;;;;;16.17;12.07;;;11.10;99.90;;;;;;4987967;28;20442;-88
2023/07/06 00:03:34;;;;;;;14.63;11.50;;;11.10;99.90;;;;;;4986874;28;20407;-87
2023/07/06 00:06:02;;;;;;;16.37;11.70;;;11.10;99.90;;;;;;4987526;28;20414;-89
2023/07/06 00:08:28;;;;;;;15.10;11.43;;;11.00;99.90;;;;;;4987487;28;20918;-89
2023/07/06 00:10:54;;;;;;;16.92;12.45;;;11.10;99.90;;;;;;4970953;28;20402;-89
2023/07/06 00:13:20;;;;;;;17.02;10.95;;;11.10;99.90;;;;;;4987203;28;20403;-88
2023/07/06 00:15:48;;;;;;;17.92;12.68;;;11.20;99.90;;;;;;4969903;28;20445;-89
2023/07/06 00:18:15;;;;;;;19.77;14.05;;;11.30;99.90;;;;;;4987547;28;20410;-89
2023/07/06 00:20:41;;;;;;;15.57;11.67;;;11.10;99.90;;;;;;4986407;28;20434;-88
2023/07/06 00:23:09;;;;;;;17.55;12.60;;;11.00;99.90;;;;;;4971087;28;20915;-89
2023/07/06 00:25:36;;;;;;;15.13;10.82;;;11.00;99.90;;;;;;4987170;28;20776;-89
2023/07/06 00:28:03;;;;;;;17.27;11.73;;;11.10;99.90;;;;;;4970447;28;20414;-89
2023/07/06 00:33:13;;;;;;;20.02;13.77;;;11.00;99.90;;;;;;4986316;28;20431;-87
2023/07/06 00:35:43;;;;;;;21.00;14.18;;;11.30;99.90;;;;;;4987780;28;20418;-89
2023/07/06 00:38:14;;;;;;;19.15;12.13;;;11.20;99.90;;;;;;4986884;28;20462;-88
2023/07/06 00:40:42;;;;;;;16.60;11.55;;;11.00;99.90;;;;;;4987030;28;20438;-89
2023/07/06 00:43:12;;;;;;;19.15;12.98;;;11.10;99.90;;;;;;4986988;28;20403;-88
2023/07/06 00:45:38;;;;;;;17.27;12.38;;;10.90;99.90;;;;;;4970068;28;20426;-89
2023/07/06 00:48:14;;;;;;;18.93;12.80;;;10.90;99.90;;;;;;4987329;28;20476;-89
2023/07/06 00:50:40;;;;;;;15.13;10.75;;;10.90;99.90;;;;;;4970087;28;20489;-87
2023/07/06 00:53:12;;;;;;;15.40;11.38;;;10.90;99.90;;;;;;4989779;28;20936;-89
2023/07/06 00:55:40;;;;;;;16.13;12.02;;;10.80;99.90;;;;;;4989475;28;20412;-89
2023/07/06 00:58:23;;;;;;;18.42;12.70;;;10.80;99.90;;;;;;4989927;28;20422;-89
2023/07/06 01:00:52;;;;;;;19.83;13.33;;;10.80;99.90;;;;;;4990694;28;20486;-88
2023/07/06 01:03:19;;;;;;;20.70;13.48;;;10.80;99.90;;;;;;4989174;28;20425;-89
2023/07/06 01:05:47;;;;;;;19.73;13.35;;;10.80;99.90;;;;;;4990268;28;20448;-89
2023/07/06 01:08:18;;;;;;;19.48;13.70;;;10.80;99.90;;;;;;4973358;28;20445;-89
2023/07/06 01:10:44;;;;;;;20.80;14.50;;;10.90;99.90;;;;;;5006236;28;20459;-90
2023/07/06 01:13:10;;;;;;;19.13;13.52;;;11.00;99.90;;;;;;4989613;28;20413;-87
2023/07/06 01:15:41;;;;;;;29.88;17.95;;;11.00;99.90;;;;;;4989456;28;20425;-88
2023/07/06 01:18:52;;;;;;;18.45;13.48;;;10.50;99.90;;;;;;4990422;28;20747;-88
2023/07/06 01:21:28;;;;;;;21.35;14.82;;;10.80;99.90;;;;;;4895447;29;20546;-88
2023/07/06 01:24:31;;;;;;;23.23;14.80;;;10.90;99.90;;;;;;4963150;28;20416;-89
2023/07/06 01:27:24;;;;;;;22.75;15.25;;;10.90;99.90;;;;;;4974492;28;20437;-89
2023/07/06 01:30:26;;;;;;;22.37;15.23;;;11.00;99.90;;;;;;4989496;28;20416;-89
2023/07/06 01:32:59;;;;;;;24.10;15.52;;;11.00;99.90;;;;;;4973192;28;20424;-89
2023/07/06 01:35:43;;;;;;;24.05;15.45;;;11.30;99.90;;;;;;4989699;28;20413;-90
2023/07/06 01:38:11;;;;;;;25.25;16.85;;;11.40;99.90;;;;;;4972862;28;20419;-90
2023/07/06 01:40:36;;;;;;;29.45;17.92;;;11.10;99.90;;;;;;4989950;28;20435;-90
2023/07/06 01:43:02;;;;;;;21.23;15.70;;;11.40;99.90;;;;;;4972798;28;20413;-89
2023/07/06 01:45:29;;;;;;;19.97;15.13;;;11.10;99.90;;;;;;4973226;28;20497;-91
2023/07/06 01:47:58;;;;;;;18.60;14.10;;;11.20;99.90;;;;;;4973540;28;20910;-89
2023/07/06 01:50:41;;;;;;;25.63;16.17;;;11.40;99.90;;;;;;4989034;28;20416;-89
2023/07/06 01:53:24;;;;;;;20.58;15.27;;;11.30;99.90;;;;;;4973995;28;20499;-89
2023/07/06 01:56:29;;;;;;;26.42;17.20;;;11.60;99.90;;;;;;4972582;28;20417;-89
2023/07/06 01:59:02;;;;;;;20.00;15.73;;;11.30;99.90;;;;;;4969249;28;20409;-89
2023/07/06 02:01:34;;;;;;;23.65;16.45;;;11.40;99.90;;;;;;4989836;28;21005;-90
2023/07/06 02:04:00;;;;;;;19.30;14.45;;;11.40;99.90;;;;;;4988652;28;20539;-89
2023/07/06 02:06:26;;;;;;;24.20;16.83;;;11.60;99.90;;;;;;4990006;28;21016;-89
2023/07/06 02:08:51;;;;;;;24.40;17.33;;;11.50;99.90;;;;;;4972504;28;20476;-90
2023/07/06 02:11:24;;;;;;;29.42;18.38;;;11.50;99.90;;;;;;4973698;28;20413;-89
2023/07/06 02:13:50;;;;;;;22.33;16.23;;;11.80;99.90;;;;;;4972816;28;20420;-89
2023/07/06 02:16:16;;;;;;;25.30;17.40;;;11.40;99.90;;;;;;4988966;28;20424;-89
2023/07/06 02:18:43;;;;;;;22.00;16.37;;;11.70;99.90;;;;;;4973521;28;20413;-89
2023/07/06 02:21:09;;;;;;;27.70;17.88;;;11.70;99.90;;;;;;4988484;28;20475;-90
2023/07/06 02:23:35;;;;;;;26.00;17.10;;;12.00;99.90;;;;;;4990101;28;20401;-89
2023/07/06 02:26:01;;;;;;;24.13;17.07;;;11.50;99.90;;;;;;4973016;28;20924;-89
2023/07/06 02:28:28;;;;;;;22.57;15.87;;;11.60;99.90;;;;;;4973580;28;20829;-90
2023/07/06 02:30:53;;;;;;;23.63;17.57;;;11.40;99.90;;;;;;4989177;28;20417;-90
2023/07/06 02:33:19;;;;;;;21.00;15.57;;;11.40;99.90;;;;;;4973412;28;20404;-89
2023/07/06 02:35:46;;;;;;;19.42;15.35;;;11.40;99.90;;;;;;4989871;28;21045;-90
2023/07/06 02:38:14;;;;;;;20.17;14.63;;;11.30;99.90;;;;;;4988630;28;20447;-91
2023/07/06 02:40:39;;;;;;;23.80;17.63;;;11.50;99.90;;;;;;4989853;28;20467;-90
2023/07/06 02:43:07;;;;;;;17.63;14.05;;;11.30;99.90;;;;;;4972410;28;20425;-89
2023/07/06 02:45:33;;;;;;;25.33;16.70;;;11.30;99.90;;;;;;4973675;28;20420;-90
2023/07/06 02:47:59;;;;;;;28.13;16.40;;;11.20;99.90;;;;;;4976103;28;20424;-89
2023/07/06 02:50:25;;;;;;;18.00;14.17;;;11.10;99.90;;;;;;4993030;28;20405;-90
2023/07/06 02:52:50;;;;;;;26.20;17.77;;;11.10;99.90;;;;;;4993220;28;20417;-88
2023/07/06 02:55:16;;;;;;;27.60;16.45;;;11.10;99.90;;;;;;4992666;28;20419;-90
2023/07/06 02:57:42;;;;;;;19.77;14.88;;;11.00;99.90;;;;;;4977771;28;20950;-90
2023/07/06 03:00:12;;;;;;;19.50;13.67;;;11.00;99.90;;;;;;4976030;28;20440;-89
2023/07/06 03:02:38;;;;;;;21.77;13.97;;;10.90;99.90;;;;;;4977050;28;20425;-90
2023/07/06 03:05:04;;;;;;;22.67;16.17;;;10.90;99.90;;;;;;4976109;28;20424;-89
2023/07/06 03:07:33;;;;;;;21.98;14.95;;;10.80;99.90;;;;;;4993003;28;21007;-90
2023/07/06 03:10:00;;;;;;;24.52;16.25;;;10.80;99.90;;;;;;4992902;28;20408;-90
2023/07/06 03:12:25;;;;;;;24.60;15.35;;;10.70;99.90;;;;;;4992326;28;20412;-89
2023/07/06 03:14:51;;;;;;;24.70;15.80;;;10.80;99.90;;;;;;4976731;28;20416;-89
2023/07/06 03:17:17;;;;;;;23.23;17.05;;;10.80;99.90;;;;;;4991939;28;20409;-90
2023/07/06 03:19:42;;;;;;;22.30;15.05;;;10.90;99.90;;;;;;4993015;28;20440;-90
2023/07/06 03:22:10;;;;;;;24.47;17.67;;;11.00;99.90;;;;;;4975679;28;20412;-90
2023/07/06 03:24:37;;;;;;;23.88;17.42;;;10.80;99.90;;;;;;4976814;28;20439;-90
2023/07/06 03:27:03;;;;;;;22.30;16.85;;;10.80;99.90;;;;;;4975942;28;20421;-89
2023/07/06 03:29:30;;;;;;;23.83;17.23;;;10.80;99.90;;;;;;4975926;28;20483;-90
2023/07/06 03:31:56;;;;;;;21.58;16.73;;;10.90;99.90;;;;;;4976263;28;20452;-89
2023/07/06 03:34:22;;;;;;;22.60;16.83;;;11.00;99.90;;;;;;4991462;28;20803;-90
2023/07/06 03:36:47;;;;;;;23.97;17.43;;;10.90;99.90;;;;;;4976532;28;20412;-90
2023/07/06 03:39:13;;;;;;;38.53;22.63;;;10.90;99.90;;;;;;4975136;28;20504;-90
2023/07/06 03:41:39;;;;;;;23.15;17.73;;;11.10;99.90;;;;;;4975999;28;20444;-90
2023/07/06 03:44:06;;;;;;;28.55;20.95;;;10.90;99.90;;;;;;4975616;28;20858;-89
2023/07/06 03:46:33;;;;;;;33.67;20.43;;;11.00;99.90;;;;;;4992197;28;20489;-90
2023/07/06 03:49:04;;;;;;;39.10;23.05;;;11.10;99.90;;;;;;4975841;28;20409;-89
2023/07/06 03:51:30;;;;;;;32.28;21.80;;;10.90;99.90;;;;;;4975064;28;20415;-90
2023/07/06 03:53:57;;;;;;;30.27;21.00;;;11.10;99.90;;;;;;4992255;28;20401;-91
2023/07/06 03:56:27;;;;;;;33.25;21.85;;;11.40;99.90;;;;;;4974960;28;20408;-89
2023/07/06 03:58:56;;;;;;;41.93;23.87;;;11.70;99.90;;;;;;4975907;28;20459;-90
2023/07/06 04:01:22;;;;;;;36.03;22.47;;;11.50;99.90;;;;;;4991487;28;20872;-91
2023/07/06 04:03:49;;;;;;;33.58;21.83;;;11.70;99.90;;;;;;4976177;28;20475;-90
2023/07/06 04:06:15;;;;;;;28.65;20.70;;;11.70;99.90;;;;;;4975887;28;20412;-89
2023/07/06 04:08:41;;;;;;;32.17;21.70;;;11.90;99.90;;;;;;4975010;28;20405;-90
2023/07/06 04:11:07;;;;;;;29.45;20.17;;;11.80;99.90;;;;;;4976101;28;20417;-90
2023/07/06 04:13:32;;;;;;;30.90;21.00;;;11.80;99.90;;;;;;4974425;28;20516;-89
2023/07/06 04:15:58;;;;;;;35.78;22.05;;;11.90;99.90;;;;;;5008555;28;20777;-90
2023/07/06 04:18:24;;;;;;;37.87;22.10;;;12.10;99.90;;;;;;4975220;28;20412;-89
2023/07/06 04:20:50;;;;;;;40.30;22.58;;;12.10;99.90;;;;;;4975814;28;20479;-90
2023/07/06 04:23:17;;;;;;;31.88;21.30;;;11.90;99.90;;;;;;4975408;28;21308;-90
2023/07/06 04:25:43;;;;;;;35.92;22.35;;;11.90;99.90;;;;;;4975144;28;20421;-89
2023/07/06 04:28:11;;;;;;;37.67;22.00;;;12.10;99.90;;;;;;4975947;28;20765;-89
2023/07/06 04:30:44;;;;;;;33.88;22.25;;;12.00;99.90;;;;;;4990671;28;20489;-90
2023/07/06 04:33:19;;;;;;;37.00;22.10;;;11.90;99.90;;;;;;4991988;28;20409;-90
2023/07/06 04:35:51;;;;;;;27.95;19.60;;;11.90;99.90;;;;;;4991073;28;20411;-89
2023/07/06 04:38:18;;;;;;;36.25;22.95;;;12.00;99.90;;;;;;4991303;28;20409;-90
2023/07/06 04:40:45;;;;;;;30.60;21.35;;;12.20;99.90;;;;;;4991515;28;20439;-90
2023/07/06 04:43:11;;;;;;;32.10;21.10;;;12.30;99.90;;;;;;4974835;28;20428;-92
2023/07/06 04:45:37;;;;;;;36.55;22.77;;;12.70;99.90;;;;;;4991896;28;20415;-91
2023/07/06 04:48:05;;;;;;;36.22;22.45;;;12.40;99.90;;;;;;4974431;28;20928;-90
2023/07/06 04:50:31;;;;;;;30.85;19.70;;;12.60;99.90;;;;;;4991695;28;20415;-90
2023/07/06 04:52:59;;;;;;;28.58;20.30;;;12.70;99.90;;;;;;4974238;28;20487;-90
2023/07/06 04:55:28;;;;;;;26.70;19.42;;;12.90;99.90;;;;;;4991362;28;20405;-90
2023/07/06 04:57:56;;;;;;;30.83;21.00;;;13.00;99.90;;;;;;4991178;28;20408;-90
2023/07/06 05:00:24;;;;;;;27.33;18.67;;;13.50;99.90;;;;;;4974349;28;21142;-90
2023/07/06 05:02:55;;;;;;;32.03;19.55;;;13.30;99.90;;;;;;4991748;28;20912;-91
2023/07/06 05:05:22;;;;;;;29.25;18.98;;;13.40;99.90;;;;;;4989929;28;20496;-90
2023/07/06 05:07:48;;;;;;;25.83;17.17;;;13.60;99.90;;;;;;4991584;28;20538;-92
2023/07/06 05:10:15;;;;;;;26.83;17.53;;;13.90;99.90;;;;;;4989415;28;20431;-91
2023/07/06 05:12:42;;;;;;;24.25;16.60;;;13.80;99.90;;;;;;4991069;28;20490;-90
2023/07/06 05:15:08;;;;;;;28.40;17.25;;;13.80;99.90;;;;;;4990970;28;20766;-90
2023/07/06 05:17:34;;;;;;;28.05;17.10;;;13.80;99.90;;;;;;4990660;28;20475;-90
2023/07/06 05:20:00;;;;;;;25.85;16.70;;;14.10;99.90;;;;;;4969183;28;20438;-89
2023/07/06 05:22:26;;;;;;;24.77;17.23;;;14.30;99.90;;;;;;4986193;28;20403;-89
2023/07/06 05:24:52;;;;;;;26.83;16.95;;;14.30;99.90;;;;;;4971728;28;20424;-90
2023/07/06 05:27:19;;;;;;;23.90;16.52;;;14.40;99.90;;;;;;4970522;28;20508;-91
2023/07/06 05:29:45;;;;;;;31.00;16.87;;;14.60;99.90;;;;;;4987656;28;20446;-90
2023/07/06 05:32:10;;;;;;;24.58;15.90;;;14.70;99.90;;;;;;4971233;28;20453;-91
2023/07/06 05:34:36;;;;;;;23.77;15.98;;;15.00;99.90;;;;;;4986124;28;21231;-91
2023/07/06 05:37:02;;;;;;;27.92;17.13;;;15.00;99.90;;;;;;4970951;28;20976;-90
2023/07/06 05:39:29;;;;;;;23.17;15.73;;;15.20;99.90;;;;;;4983044;28;20499;-91
2023/07/06 05:41:54;;;;;;;24.90;16.98;;;15.30;99.90;;;;;;4991247;28;20409;-91
2023/07/06 05:44:20;;;;;;;24.40;16.00;;;15.50;99.90;;;;;;4989106;28;21105;-90
2023/07/06 05:46:46;;;;;;;24.80;16.83;;;15.80;99.90;;;;;;4990248;28;20545;-91
2023/07/06 05:49:12;;;;;;;25.92;15.27;;;15.70;99.90;;;;;;4988702;28;20562;-91
2023/07/06 05:51:37;;;;;;;24.30;14.30;;;15.80;99.90;;;;;;4989534;28;20917;-90
2023/07/06 05:54:03;;;;;;;19.23;13.20;;;16.10;99.90;;;;;;4989242;28;20460;-90
2023/07/06 05:56:32;;;;;;;24.87;13.47;;;16.60;99.90;;;;;;4988991;28;20431;-91
2023/07/06 05:59:01;;;;;;;22.15;12.98;;;16.30;99.90;;;;;;4974250;28;20413;-90
2023/07/06 06:01:29;;;;;;;20.83;11.90;;;16.50;99.90;;;;;;4972656;28;20785;-91
2023/07/06 06:03:55;;;;;;;23.20;13.15;;;16.80;99.90;;;;;;4974884;28;20405;-91
2023/07/06 06:06:22;;;;;;;22.92;13.48;;;16.70;99.90;;;;;;4989478;28;20553;-91
2023/07/06 06:08:49;;;;;;;23.98;12.05;;;16.70;99.90;;;;;;4983253;28;20805;-92
2023/07/06 06:11:15;;;;;;;20.27;11.40;;;17.10;99.90;;;;;;4986520;28;20415;-92
2023/07/06 06:16:37;;;;;;;19.02;11.05;;;17.20;99.90;;;;;;4959499;28;20423;-91
2023/07/06 06:19:03;;;;;;;18.53;11.00;;;17.20;99.90;;;;;;4952493;28;20781;-91
2023/07/06 06:21:30;;;;;;;18.70;10.33;;;17.20;99.90;;;;;;4970308;28;20441;-90
2023/07/06 06:23:57;;;;;;;17.98;9.60;;;17.60;99.90;;;;;;4970017;28;20811;-90
2023/07/06 06:26:24;;;;;;;19.83;9.82;;;17.60;99.90;;;;;;4954593;28;20402;-92
2023/07/06 06:28:50;;;;;;;18.60;9.82;;;17.60;99.90;;;;;;4954250;28;20414;-89
2023/07/06 06:31:16;;;;;;;18.83;9.63;;;17.70;99.90;;;;;;4953708;28;20414;-91
2023/07/06 06:33:44;;;;;;;16.80;8.93;;;17.50;99.90;;;;;;4975945;28;20412;-91
2023/07/06 06:36:12;;;;;;;16.38;9.30;;;17.70;99.90;;;;;;4988695;28;20413;-92
2023/07/06 06:38:38;;;;;;;20.37;10.13;;;17.80;99.90;;;;;;4990616;28;20404;-92
2023/07/06 06:41:07;;;;;;;19.05;9.32;;;17.90;99.90;;;;;;4972691;28;20439;-90
2023/07/06 06:43:37;;;;;;;15.13;8.57;;;18.30;99.90;;;;;;4990014;28;20472;-90
2023/07/06 06:46:03;;;;;;;17.08;9.32;;;18.20;99.90;;;;;;4989281;28;20408;-92
2023/07/06 06:48:29;;;;;;;16.92;9.13;;;18.20;99.90;;;;;;4989391;28;20463;-92
2023/07/06 06:50:56;;;;;;;16.52;9.18;;;18.30;99.90;;;;;;4990953;28;20447;-91
2023/07/06 06:53:22;;;;;;;15.47;8.40;;;18.10;99.90;;;;;;4972940;28;20812;-92
2023/07/06 06:55:48;;;;;;;12.35;6.70;;;18.50;99.90;;;;;;4990521;28;20800;-93
2023/07/06 06:58:15;;;;;;;13.57;7.38;;;18.60;99.90;;;;;;4988936;28;20492;-90
2023/07/06 07:00:44;;;;;;;10.68;5.20;;;18.80;99.90;;;;;;4990525;28;20433;-91
2023/07/06 07:03:11;;;;;;;11.25;5.05;;;18.60;99.90;;;;;;4988899;28;20405;-92
2023/07/06 07:05:37;;;;;;;10.55;5.57;;;19.10;99.90;;;;;;4988283;28;20413;-91
2023/07/06 07:08:03;;;;;;;12.57;5.35;;;18.90;99.90;;;;;;4973280;28;20404;-90
2023/07/06 07:10:29;;;;;;;10.00;4.82;;;18.90;99.90;;;;;;4987996;28;20928;-91
2023/07/06 07:12:55;;;;;;;9.60;4.63;;;19.00;99.90;;;;;;4989807;28;20767;-91
2023/07/06 07:15:21;;;;;;;10.02;4.55;;;18.90;99.90;;;;;;4970930;28;20419;-91
2023/07/06 07:17:50;;;;;;;7.55;3.20;;;18.90;99.90;;;;;;4988908;28;20606;-91
2023/07/06 07:20:15;;;;;;;7.70;2.67;;;19.00;99.90;;;;;;4972098;28;20428;-92
2023/07/06 07:22:41;;;;;;;8.20;2.47;;;19.00;99.90;;;;;;4989110;28;20467;-91
2023/07/06 07:25:07;;;;;;;7.07;2.30;;;19.30;99.90;;;;;;4973039;28;20448;-91
2023/07/06 07:27:35;;;;;;;7.47;2.55;;;19.20;99.90;;;;;;4988396;28;20516;-91
2023/07/06 07:30:04;;;;;;;6.97;2.15;;;19.30;99.90;;;;;;4989264;28;20413;-92
2023/07/06 07:32:30;;;;;;;6.50;1.88;;;19.30;99.90;;;;;;4988657;28;20416;-92
2023/07/06 07:34:58;;;;;;;5.90;1.50;;;19.40;99.90;;;;;;4992955;28;20476;-93
2023/07/06 07:37:25;;;;;;;5.70;1.80;;;19.40;99.90;;;;;;4991541;28;20703;-92
2023/07/06 07:39:51;;;;;;;5.03;1.38;;;19.60;99.90;;;;;;4976046;28;20941;-92
2023/07/06 07:42:18;;;;;;;5.82;1.20;;;19.80;99.90;;;;;;4992570;28;20499;-91
2023/07/06 07:44:44;;;;;;;5.65;1.58;;;20.00;99.90;;;;;;5007691;28;20416;-92
2023/07/06 07:47:18;;;;;;;5.20;1.80;;;20.00;99.90;;;;;;4975905;28;20444;-90
2023/07/06 07:49:45;;;;;;;6.37;1.70;;;20.10;99.90;;;;;;4990805;28;20405;-91
2023/07/06 07:52:12;;;;;;;6.35;1.40;;;20.00;99.90;;;;;;4992204;28;20960;-91
2023/07/06 07:54:38;;;;;;;5.00;1.08;;;19.90;99.90;;;;;;4974829;28;20408;-91
2023/07/06 07:57:05;;;;;;;3.27;0.70;;;19.60;99.90;;;;;;4991805;28;20829;-91
2023/07/06 07:59:31;;;;;;;4.33;0.73;;;19.40;99.90;;;;;;4991858;28;20412;-91
2023/07/06 08:01:57;;;;;;;2.35;0.90;;;19.30;99.90;;;;;;4990696;28;20408;-92
2023/07/06 08:04:22;;;;;;;4.07;1.10;;;19.20;99.90;;;;;;4975664;28;20421;-90
2023/07/06 08:06:49;;;;;;;4.90;1.23;;;19.30;99.90;;;;;;4990302;28;20401;-91
2023/07/06 08:09:15;;;;;;;4.78;1.08;;;19.00;99.90;;;;;;4991632;28;20416;-92
2023/07/06 08:11:46;;;;;;;3.60;1.10;;;19.30;99.90;;;;;;4990782;28;20421;-90
2023/07/06 08:14:13;;;;;;;4.00;0.80;;;19.00;99.90;;;;;;4991309;28;20436;-90
2023/07/06 08:16:42;;;;;;;5.03;1.30;;;18.80;99.90;;;;;;4992013;28;20431;-90
2023/07/06 08:19:08;;;;;;;4.40;1.10;;;18.70;99.90;;;;;;4976763;28;20496;-91
2023/07/06 08:21:34;;;;;;;4.17;1.00;;;18.90;99.90;;;;;;4987724;28;20867;-90
2023/07/06 08:24:00;;;;;;;5.50;1.27;;;18.70;99.90;;;;;;4969591;28;20423;-89
2023/07/06 08:26:29;;;;;;;5.55;1.30;;;18.90;99.90;;;;;;4987075;28;20410;-90
2023/07/06 08:28:55;;;;;;;5.22;1.50;;;18.70;99.90;;;;;;4971189;28;20403;-91
2023/07/06 08:31:21;;;;;;;5.07;1.30;;;18.80;99.90;;;;;;4989108;28;20402;-92
2023/07/06 08:33:48;;;;;;;4.95;1.30;;;18.50;99.90;;;;;;4972215;28;20406;-92
2023/07/06 08:36:20;;;;;;;5.85;1.10;;;18.80;99.90;;;;;;4972650;28;20944;-91
2023/07/06 08:38:46;;;;;;;5.28;1.10;;;19.60;99.90;;;;;;4972550;28;20977;-92
2023/07/06 08:41:29;;;;;;;3.65;1.08;;;20.00;99.90;;;;;;4972059;28;20445;-92
2023/07/06 08:43:58;;;;;;;4.30;1.17;;;19.80;99.90;;;;;;4973562;28;20411;-92
2023/07/06 08:46:27;;;;;;;4.90;0.95;;;19.90;99.90;;;;;;4971536;28;20478;-92
2023/07/06 08:48:53;;;;;;;4.57;0.93;;;19.70;99.90;;;;;;4972913;28;20410;-93
2023/07/06 08:51:36;;;;;;;4.60;0.90;;;19.70;99.90;;;;;;4971837;28;20907;-93
2023/07/06 08:54:16;;;;;;;3.28;0.55;;;19.70;99.90;;;;;;4971210;28;20957;-93
2023/07/06 08:56:42;;;;;;;3.47;0.55;;;19.90;99.90;;;;;;4973313;28;20411;-92
2023/07/06 08:59:18;;;;;;;3.25;0.60;;;20.10;95.40;;;;;;4987008;28;20425;-93
2023/07/06 09:01:46;;;;;;;4.07;0.57;;;20.20;99.00;;;;;;4988249;28;20503;-92
2023/07/06 09:04:18;;;;;;;3.05;0.60;;;20.00;97.90;;;;;;4972090;28;20807;-92
2023/07/06 09:06:49;;;;;;;2.92;0.30;;;19.90;99.90;;;;;;4971076;28;20919;-94
2023/07/06 09:09:15;;;;;;;2.38;0.60;;;20.00;96.10;;;;;;4972451;28;20456;-93
2023/07/06 09:11:43;;;;;;;3.22;0.50;;;20.30;98.30;;;;;;4970258;28;20414;-92
2023/07/06 09:14:13;;;;;;;1.85;0.40;;;20.80;86.80;;;;;;4972266;28;20439;-92
2023/07/06 09:16:55;;;;;;;1.70;0.43;;;20.90;97.20;;;;;;4971077;28;20411;-94
2023/07/06 09:19:25;;;;;;;3.27;0.70;;;21.10;85.60;;;;;;4971936;28;20923;-94
2023/07/06 09:21:54;;;;;;;16.80;5.25;;;21.00;78.60;;;;;;4971849;28;20442;-93
2023/07/06 09:24:27;;;;;;;2.13;0.60;;;21.00;77.80;;;;;;4970197;28;20414;-93
2023/07/06 09:26:57;;;;;;;2.25;0.45;;;20.80;77.70;;;;;;4972230;28;20745;-96
2023/07/06 09:29:35;;;;;;;2.90;0.50;;;20.80;74.20;;;;;;4969983;28;20737;-94
2023/07/06 09:32:19;;;;;;;25.77;8.67;;;20.90;81.90;;;;;;4972061;28;20410;-92
2023/07/06 09:34:55;;;;;;;3.25;0.40;;;21.30;84.60;;;;;;4971955;28;20414;-93
2023/07/06 09:37:21;;;;;;;3.80;0.55;;;21.80;92.50;;;;;;4963687;28;20407;-93
2023/07/06 09:40:16;;;;;;;1.60;0.50;;;21.90;80.70;;;;;;4972572;28;20891;-90
2023/07/06 09:42:44;;;;;;;2.17;0.40;;;21.90;69.70;;;;;;4956450;28;20887;-89
2023/07/06 09:45:25;;;;;;;1.85;0.30;;;22.30;72.20;;;;;;4985492;28;20470;-89
2023/07/06 09:48:05;;;;;;;3.40;0.38;;;21.90;66.20;;;;;;4986512;28;20497;-94
2023/07/06 09:50:37;;;;;;;1.70;0.30;;;21.80;67.80;;;;;;4969428;28;20426;-90
2023/07/06 09:53:05;;;;;;;3.67;0.40;;;21.70;63.70;;;;;;4987573;28;20426;-92
2023/07/06 09:55:31;;;;;;;2.03;0.50;;;21.60;72.70;;;;;;4968613;28;20925;-91
2023/07/06 09:57:58;;;;;;;3.03;0.60;;;22.00;76.30;;;;;;4969371;28;20410;-94
2023/07/06 10:00:44;;;;;;;2.25;0.40;;;21.70;63.80;;;;;;4969757;28;20545;-91
2023/07/06 10:03:25;;;;;;;2.90;0.60;;;21.40;68.80;;;;;;4970038;28;20847;-91
2023/07/06 10:06:08;;;;;;;2.22;0.43;;;21.30;70.40;;;;;;4971212;28;20446;-92
2023/07/06 10:08:46;;;;;;;3.15;0.40;;;21.00;71.10;;;;;;4969854;28;20422;-93
2023/07/06 10:11:24;;;;;;;2.65;0.50;;;20.90;69.40;;;;;;4970552;28;20480;-92
2023/07/06 10:13:57;;;;;;;2.07;0.60;;;20.60;72.20;;;;;;4986538;28;20974;-89
2023/07/06 10:16:42;;;;;;;4.93;0.68;;;20.90;89.60;;;;;;4968795;28;21170;-90
2023/07/06 10:19:26;;;;;;;3.75;0.50;;;21.40;91.30;;;;;;4970905;28;20415;-91
2023/07/06 10:22:22;;;;;;;3.03;0.50;;;22.00;70.50;;;;;;4985277;28;20442;-93
2023/07/06 10:25:00;;;;;;;3.17;0.52;;;22.60;78.30;;;;;;4969112;28;20415;-91
2023/07/06 10:27:34;;;;;;;1.90;0.40;;;23.10;73.90;;;;;;4987123;28;20412;-93
2023/07/06 10:30:08;;;;;;;3.75;0.90;;;23.00;69.80;;;;;;4984427;28;20418;-87
2023/07/06 10:32:40;;;;;;;4.57;0.70;;;22.60;63.50;;;;;;4986459;28;20869;-91
2023/07/06 10:35:19;;;;;;;3.13;0.52;;;22.10;65.50;;;;;;4986026;28;20413;-89
2023/07/06 10:37:46;;;;;;;3.08;0.85;;;21.70;69.60;;;;;;4985451;28;20459;-92
2023/07/06 10:40:25;;;;;;;3.53;0.60;;;21.40;77.20;;;;;;4986791;28;21126;-92
2023/07/06 10:43:11;;;;;;;4.20;0.70;;;21.10;73.30;;;;;;4985110;28;20494;-92
2023/07/06 10:45:56;;;;;;;4.03;1.10;;;20.90;81.50;;;;;;4970147;28;20492;-91
2023/07/06 10:48:24;;;;;;;3.53;0.63;;;20.90;90.20;;;;;;4963288;28;20450;-91
2023/07/06 10:51:12;;;;;;;3.58;0.90;;;20.60;88.80;;;;;;4969358;28;20855;-93
2023/07/06 10:53:47;;;;;;;2.75;0.80;;;20.40;92.00;;;;;;4970222;28;20421;-91
2023/07/06 10:56:21;;;;;;;3.80;0.80;;;20.30;93.40;;;;;;4977296;28;20469;-90
2023/07/06 10:58:55;;;;;;;3.15;0.50;;;20.30;99.60;;;;;;4969730;28;20422;-91
2023/07/06 11:01:23;;;;;;;3.97;0.65;;;20.20;96.90;;;;;;4986161;28;20502;-89
2023/07/06 11:03:49;;;;;;;2.65;0.52;;;20.30;91.50;;;;;;4968619;28;20406;-91
2023/07/06 11:06:40;;;;;;;3.33;0.60;;;20.20;90.90;;;;;;4970330;28;20407;-92
2023/07/06 11:09:07;;;;;;;4.13;0.75;;;20.50;92.30;;;;;;4971904;28;20414;-89
2023/07/06 11:11:49;;;;;;;3.22;0.60;;;20.80;93.70;;;;;;4973721;28;20417;-90
2023/07/06 11:14:23;;;;;;;2.30;0.70;;;21.20;93.10;;;;;;4981014;28;20422;-89
2023/07/06 11:16:55;;;;;;;1.95;0.60;;;21.50;92.80;;;;;;4987246;28;20472;-89
2023/07/06 11:19:26;;;;;;;3.20;0.50;;;21.90;88.40;;;;;;4988750;28;20502;-87
2023/07/06 11:21:54;;;;;;;2.05;0.50;;;22.40;86.50;;;;;;4970940;28;20811;-90
2023/07/06 11:24:29;;;;;;;1.85;0.40;;;22.30;87.70;;;;;;4989364;28;20787;-90
2023/07/06 11:26:58;;;;;;;2.55;0.57;;;22.50;88.30;;;;;;4988576;28;20741;-90
2023/07/06 11:29:29;;;;;;;3.58;0.50;;;22.60;78.90;;;;;;4988807;28;20834;-92
2023/07/06 11:32:12;;;;;;;2.03;0.50;;;22.50;70.90;;;;;;4989580;28;20402;-88
2023/07/06 11:34:49;;;;;;;2.47;0.50;;;22.30;67.00;;;;;;4987468;28;20941;-91
2023/07/06 11:37:34;;;;;;;2.00;0.38;;;22.70;85.30;;;;;;4981445;28;20418;-91
2023/07/06 11:40:38;;;;;;;3.45;0.40;;;23.20;62.90;;;;;;4971768;28;21023;-89
2023/07/06 11:43:47;;;;;;;2.57;0.40;;;23.40;60.50;;;;;;4986516;28;20415;-88
2023/07/06 11:46:34;;;;;;;4.40;0.40;;;23.10;61.70;;;;;;4964880;28;20454;-92
2023/07/06 11:49:02;;;;;;;2.25;0.30;;;23.20;61.80;;;;;;4987639;28;20422;-92
2023/07/06 11:51:31;;;;;;;2.13;0.30;;;24.00;63.90;;;;;;4987497;28;20417;-91
2023/07/06 11:54:01;;;;;;;1.27;0.32;;;24.30;60.60;;;;;;4971916;28;20469;-88
2023/07/06 11:56:35;;;;;;;2.50;0.30;;;24.30;57.20;;;;;;4971103;28;20454;-88
2023/07/06 11:59:04;;;;;;;4.00;0.40;;;24.00;57.80;;;;;;4989756;28;20469;-88
2023/07/06 12:01:46;;;;;;;2.75;0.40;;;23.90;57.50;;;;;;4987738;28;20492;-91
2023/07/06 12:04:14;;;;;;;2.17;0.40;;;24.10;57.80;;;;;;4970397;28;20407;-87
2023/07/06 12:06:40;;;;;;;2.08;0.30;;;24.60;50.70;;;;;;4988656;28;20845;-89
2023/07/06 12:09:08;;;;;;;2.80;0.40;;;24.60;53.50;;;;;;4970320;28;20422;-89
2023/07/06 12:11:37;;;;;;;1.30;0.30;;;24.30;50.90;;;;;;4989617;28;20418;-92
2023/07/06 12:14:05;;;;;;;2.38;0.30;;;24.00;52.50;;;;;;4970529;28;20415;-91
2023/07/06 12:16:41;;;;;;;3.17;0.28;;;24.30;56.50;;;;;;4988255;28;20809;-91
2023/07/06 12:19:10;;;;;;;9.57;1.88;;;24.60;52.80;;;;;;4987476;28;20472;-89
2023/07/06 12:21:45;;;;;;;1.45;0.20;;;24.60;50.90;;;;;;4986195;28;20434;-89
2023/07/06 12:24:16;;;;;;;2.08;0.30;;;24.80;51.60;;;;;;4972344;28;20433;-94
2023/07/06 12:26:51;;;;;;;2.72;0.35;;;25.30;53.70;;;;;;4986543;28;20402;-89
2023/07/06 12:29:23;;;;;;;1.05;0.30;;;25.70;51.50;;;;;;4980744;28;20423;-91
2023/07/06 12:31:50;;;;;;;1.40;0.30;;;25.90;51.10;;;;;;4987534;28;20455;-90
2023/07/06 12:34:19;;;;;;;3.13;0.55;;;26.40;56.40;;;;;;4986928;28;20418;-91
2023/07/06 12:36:49;;;;;;;3.00;0.30;;;26.70;52.70;;;;;;4987412;28;20434;-88
2023/07/06 12:39:18;;;;;;;2.27;0.20;;;27.10;50.30;;;;;;4987061;28;20763;-88
2023/07/06 12:41:44;;;;;;;1.50;0.35;;;27.50;45.00;;;;;;4987178;28;20434;-88
2023/07/06 12:44:17;;;;;;;3.28;0.50;;;27.70;45.50;;;;;;4978020;28;20772;-92
2023/07/06 12:46:51;;;;;;;2.67;0.50;;;27.70;45.40;;;;;;4987103;28;20477;-92
2023/07/06 12:49:23;;;;;;;2.33;0.40;;;27.90;47.10;;;;;;5003056;28;20505;-90
2023/07/06 12:51:54;;;;;;;2.50;0.50;;;28.00;49.10;;;;;;4982224;28;20465;-92
2023/07/06 12:54:25;;;;;;;2.00;0.40;;;27.90;44.40;;;;;;4966728;28;20399;-92
2023/07/06 12:57:00;;;;;;;3.78;0.40;;;27.90;47.40;;;;;;4980816;28;20498;-89